Time;durP1;ratioP1;P1;durP2;ratioP2;P2;SDS_P1;SDS_P2;PMS_P1;PMS_P2;Temp;Humidity;BMP_temperature;BMP_pressure;BME280_temperature;BME280_humidity;BME280_pressure;Samples;Min_cycle;Max_cycle;Signal;HPM_P1;HPM_P2
2022/04/30 00:00:37;;;;;;;4.20;2.72;;;;;;;5.01;57.87;100501.78;4781003;30;20055;-78
2022/04/30 00:03:03;;;;;;;4.75;3.40;;;;;;;4.95;58.94;100504.22;4788032;30;20056;-78
2022/04/30 00:05:31;;;;;;;5.13;3.63;;;;;;;4.92;58.15;100512.75;4762229;30;20044;-78
2022/04/30 00:07:58;;;;;;;5.50;3.00;;;;;;;4.93;58.63;100519.66;4771173;30;20075;-78
2022/04/30 00:10:24;;;;;;;5.55;3.15;;;;;;;4.79;58.75;100500.38;4756147;30;20142;-79
2022/04/30 00:12:50;;;;;;;3.60;2.67;;;;;;;4.70;58.41;100508.75;4765735;30;20127;-79
2022/04/30 00:15:16;;;;;;;3.60;2.70;;;;;;;4.70;59.06;100513.91;4759284;30;20104;-78
2022/04/30 00:17:42;;;;;;;4.03;2.53;;;;;;;4.66;58.85;100530.13;4789489;29;20048;-78
2022/04/30 00:20:09;;;;;;;4.65;2.50;;;;;;;4.34;59.04;100483.72;4755930;30;20493;-77
2022/04/30 00:22:35;;;;;;;3.78;2.60;;;;;;;4.45;58.84;100512.34;4755659;30;20044;-78
2022/04/30 00:25:01;;;;;;;3.10;2.40;;;;;;;4.36;59.61;100507.81;4761343;30;20047;-76
2022/04/30 00:27:31;;;;;;;6.88;2.80;;;;;;;4.47;59.62;100518.44;4765337;30;20186;-77
2022/04/30 00:29:58;;;;;;;3.45;2.50;;;;;;;4.46;59.43;100516.69;4765950;30;20552;-78
2022/04/30 00:32:25;;;;;;;3.38;2.72;;;;;;;4.25;59.91;100489.47;4765786;30;20047;-79
2022/04/30 00:34:51;;;;;;;3.78;2.50;;;;;;;4.34;59.34;100518.09;4765287;30;20051;-78
2022/04/30 00:37:17;;;;;;;4.55;2.67;;;;;;;4.21;59.54;100504.00;4756038;30;20143;-80
2022/04/30 00:39:43;;;;;;;5.35;2.63;;;;;;;4.33;59.73;100536.06;4771123;30;20143;-78
2022/04/30 00:42:13;;;;;;;3.00;2.30;;;;;;;4.28;59.69;100540.25;4755639;30;20134;-79
2022/04/30 00:44:40;;;;;;;3.50;2.20;;;;;;;4.23;59.60;100532.38;4764621;30;20051;-77
2022/04/30 00:47:06;;;;;;;4.45;2.80;;;;;;;4.21;60.03;100537.50;4755747;30;20098;-79
2022/04/30 00:49:32;;;;;;;3.40;2.50;;;;;;;4.20;60.08;100538.31;4759361;30;20052;-78
2022/04/30 00:52:01;;;;;;;4.40;2.50;;;;;;;4.06;59.86;100519.88;4756462;30;20154;-79
2022/04/30 00:54:33;;;;;;;7.13;2.95;;;;;;;4.16;60.19;100544.19;4745527;30;20052;-79
2022/04/30 00:57:02;;;;;;;3.42;2.65;;;;;;;4.14;60.79;100542.41;4747471;30;20069;-81
2022/04/30 00:59:31;;;;;;;3.35;2.50;;;;;;;3.95;59.98;100517.81;4766699;30;20067;-77
2022/04/30 01:01:59;;;;;;;5.38;2.45;;;;;;;4.00;60.18;100527.41;4762742;30;20048;-78
2022/04/30 01:04:44;;;;;;;4.18;2.30;;;;;;;3.84;60.30;100504.63;4773630;30;20066;-78
2022/04/30 01:07:10;;;;;;;4.25;2.45;;;;;;;3.88;59.48;100533.06;4766534;30;20094;-78
2022/04/30 01:09:43;;;;;;;3.42;2.30;;;;;;;3.78;60.44;100513.03;4758722;30;20047;-78
2022/04/30 01:12:10;;;;;;;3.25;2.10;;;;;;;3.91;59.86;100546.03;4741011;30;20469;-79
2022/04/30 01:14:42;;;;;;;3.03;2.10;;;;;;;3.67;60.48;100507.56;4769337;30;20048;-79
2022/04/30 01:17:10;;;;;;;2.85;2.08;;;;;;;3.79;60.38;100529.34;4754417;30;20036;-77
2022/04/30 01:19:39;;;;;;;3.80;2.05;;;;;;;3.75;59.73;100539.56;4755614;30;20115;-78
2022/04/30 01:22:29;;;;;;;3.10;2.20;;;;;;;3.75;60.92;100528.41;4764840;30;20044;-78
2022/04/30 01:24:56;;;;;;;4.38;2.33;;;;;;;3.70;60.65;100519.66;4746604;30;22135;-79
2022/04/30 01:27:26;;;;;;;4.57;2.33;;;;;;;3.64;60.42;100517.75;4764944;30;20056;-78
2022/04/30 01:29:58;;;;;;;3.75;2.35;;;;;;;3.74;60.29;100536.94;4745008;30;20051;-79
2022/04/30 01:38:05;;;;;;;3.20;2.33;;;;;;;3.63;60.36;100528.88;4764382;30;20034;-79
2022/04/30 01:40:32;;;;;;;4.75;2.28;;;;;;;3.79;60.39;100548.25;4782097;30;20063;-79
2022/04/30 01:43:01;;;;;;;3.83;2.33;;;;;;;3.81;60.39;100553.44;4777672;30;20404;-77
2022/04/30 01:45:31;;;;;;;4.40;2.30;;;;;;;3.85;60.58;100545.88;4774228;30;20039;-79
2022/04/30 01:48:00;;;;;;;4.20;2.97;;;;;;;3.79;60.10;100531.91;4764605;30;20040;-78
2022/04/30 01:50:26;;;;;;;3.30;2.80;;;;;;;3.73;60.48;100523.22;4762474;30;20051;-79
2022/04/30 01:52:53;;;;;;;3.70;2.85;;;;;;;3.87;60.16;100546.78;4741236;30;20071;-80
2022/04/30 01:55:19;;;;;;;4.13;3.10;;;;;;;3.89;60.01;100558.00;4742925;30;20054;-79
2022/04/30 01:57:47;;;;;;;3.60;2.95;;;;;;;3.96;60.50;100553.94;4747798;30;20056;-80
2022/04/30 02:00:14;;;;;;;3.22;2.63;;;;;;;3.94;60.28;100550.44;4752137;30;20412;-79
2022/04/30 02:02:46;;;;;;;4.43;2.90;;;;;;;4.06;60.13;100552.50;4751451;30;20048;-78
2022/04/30 02:05:16;;;;;;;6.95;3.85;;;;;;;4.06;59.83;100560.22;4756158;30;20048;-78
2022/04/30 02:08:05;;;;;;;3.47;2.72;;;;;;;3.96;59.97;100560.78;4744313;30;20131;-78
2022/04/30 02:10:35;;;;;;;5.63;3.17;;;;;;;3.89;60.13;100562.28;4750607;30;20071;-79
2022/04/30 02:13:01;;;;;;;3.50;3.00;;;;;;;3.84;60.11;100562.16;4713863;30;20079;-80
2022/04/30 02:15:28;;;;;;;4.20;3.08;;;;;;;3.65;59.81;100545.25;4740225;30;20079;-78
2022/04/30 02:17:56;;;;;;;7.50;4.20;;;;;;;3.64;59.74;100556.38;4751544;30;20401;-78
2022/04/30 02:20:27;;;;;;;4.32;3.28;;;;;;;3.68;60.21;100570.22;4741430;30;20135;-80
2022/04/30 02:22:56;;;;;;;4.82;3.22;;;;;;;3.61;60.30;100557.16;4741505;30;20050;-80
2022/04/30 02:25:24;;;;;;;3.80;3.10;;;;;;;3.59;60.23;100553.66;4740495;30;20063;-79
2022/04/30 02:27:52;;;;;;;5.63;3.28;;;;;;;3.39;60.31;100526.44;4740933;30;20043;-78
2022/04/30 02:30:21;;;;;;;4.32;3.25;;;;;;;3.65;60.42;100575.25;4753582;30;20087;-79
2022/04/30 02:32:51;;;;;;;4.18;3.15;;;;;;;3.61;60.13;100580.34;4748114;30;20050;-78
2022/04/30 02:35:24;;;;;;;3.75;2.92;;;;;;;3.54;60.28;100564.63;4753546;30;20059;-79
2022/04/30 02:37:52;;;;;;;4.35;3.00;;;;;;;3.59;60.05;100571.69;4743618;30;20075;-79
2022/04/30 02:40:20;;;;;;;5.32;3.30;;;;;;;3.36;60.47;100531.47;4758286;30;20113;-79
2022/04/30 02:42:48;;;;;;;5.68;3.20;;;;;;;3.59;60.26;100573.38;4753828;30;20048;-77
2022/04/30 02:45:15;;;;;;;3.30;2.97;;;;;;;3.55;60.48;100581.81;4741857;30;20086;-78
2022/04/30 02:47:44;;;;;;;5.20;3.30;;;;;;;3.48;60.51;100565.31;4747002;30;20047;-77
2022/04/30 02:50:12;;;;;;;5.15;3.42;;;;;;;3.70;60.58;100586.56;4731982;30;20113;-79
2022/04/30 02:52:41;;;;;;;3.63;3.30;;;;;;;3.71;60.32;100590.91;4747680;30;20083;-79
2022/04/30 02:55:08;;;;;;;3.92;3.22;;;;;;;3.63;59.71;100577.78;4790280;29;20055;-79
2022/04/30 03:00:40;;;;;;;4.57;3.10;;;;;;;3.77;60.65;100604.84;4741210;30;20138;-80
2022/04/30 03:03:19;;;;;;;5.32;3.13;;;;;;;3.85;60.49;100604.22;4772487;30;20190;-77
2022/04/30 03:05:50;;;;;;;4.30;3.05;;;;;;;3.85;60.61;100597.38;4788562;29;20113;-78
2022/04/30 03:08:20;;;;;;;3.95;3.25;;;;;;;3.95;60.30;100592.50;4729452;30;20863;-79
2022/04/30 03:10:53;;;;;;;5.85;3.13;;;;;;;4.13;60.02;100587.91;4758515;30;20055;-77
2022/04/30 03:13:20;;;;;;;4.05;2.80;;;;;;;4.25;60.24;100566.78;4790982;29;20237;-80
2022/04/30 03:15:51;;;;;;;6.30;2.88;;;;;;;4.56;59.72;100603.75;4760419;30;20059;-77
2022/04/30 03:23:39;;;;;;;3.70;2.55;;;;;;;4.93;59.15;100606.50;4790274;29;20636;-79
2022/04/30 03:26:08;;;;;;;3.78;2.70;;;;;;;4.99;58.87;100609.22;4766383;30;20055;-80
2022/04/30 03:28:35;;;;;;;3.28;2.55;;;;;;;4.88;58.40;100602.91;4766830;30;20040;-78
2022/04/30 03:31:01;;;;;;;3.17;2.80;;;;;;;4.88;58.56;100602.91;4787071;29;20055;-77
2022/04/30 03:33:27;;;;;;;3.05;2.55;;;;;;;4.90;58.11;100614.13;4756515;30;20158;-79
2022/04/30 03:35:54;;;;;;;3.50;2.60;;;;;;;4.86;58.02;100595.09;4760356;30;20574;-79
2022/04/30 03:38:21;;;;;;;3.28;2.45;;;;;;;5.05;57.68;100608.53;4765895;30;20070;-78
2022/04/30 03:40:47;;;;;;;3.00;2.30;;;;;;;5.34;58.46;100627.34;4765656;30;20058;-79
2022/04/30 03:43:15;;;;;;;2.92;2.13;;;;;;;5.58;57.44;100626.22;4766042;30;20040;-79
2022/04/30 03:45:42;;;;;;;2.42;2.22;;;;;;;5.70;57.03;100631.66;4765139;30;20098;-80
2022/04/30 03:48:09;;;;;;;1.92;1.73;;;;;;;5.91;56.51;100621.81;4756769;30;20605;-80
2022/04/30 03:50:36;;;;;;;3.67;1.65;;;;;;;5.82;55.98;100614.75;4770166;30;20079;-79
2022/04/30 03:53:04;;;;;;;2.10;1.80;;;;;;;5.69;55.16;100591.19;4771299;29;20078;-79
2022/04/30 03:55:30;;;;;;;2.08;1.80;;;;;;;5.82;55.62;100604.41;4774670;30;20051;-78
2022/04/30 03:57:56;;;;;;;2.72;1.70;;;;;;;6.01;55.10;100624.69;4770533;30;20686;-79
2022/04/30 04:00:23;;;;;;;3.50;1.70;;;;;;;6.16;55.06;100631.03;4761741;30;20492;-81
2022/04/30 04:02:50;;;;;;;3.50;1.90;;;;;;;6.12;54.86;100599.09;4771167;30;20061;-79
2022/04/30 04:05:17;;;;;;;2.15;1.92;;;;;;;6.27;54.15;100611.47;4755973;30;20047;-80
2022/04/30 04:07:44;;;;;;;2.45;1.85;;;;;;;6.52;53.75;100622.31;4766350;30;20044;-82
2022/04/30 04:10:12;;;;;;;1.90;1.70;;;;;;;6.89;53.66;100645.47;4786194;29;20127;-79
2022/04/30 04:12:42;;;;;;;3.80;1.80;;;;;;;6.96;52.37;100628.34;4785512;29;20078;-78
2022/04/30 04:17:54;;;;;;;1.83;1.67;;;;;;;7.42;52.32;100636.97;4747121;30;20047;-80
2022/04/30 04:20:27;;;;;;;2.22;1.80;;;;;;;7.52;51.38;100632.81;4766692;30;20046;-79
2022/04/30 04:22:54;;;;;;;8.02;1.92;;;;;;;7.71;50.86;100636.59;4766923;30;20051;-81
2022/04/30 04:28:06;;;;;;;1.95;1.60;;;;;;;8.20;50.48;100623.50;4756105;30;20540;-79
2022/04/30 04:30:33;;;;;;;2.08;1.63;;;;;;;8.64;49.80;100644.84;4756448;30;20077;-81
2022/04/30 04:33:00;;;;;;;2.70;1.67;;;;;;;8.99;48.99;100663.44;4766455;30;20051;-79
2022/04/30 04:35:27;;;;;;;2.40;1.40;;;;;;;9.06;48.33;100620.22;4762457;30;20059;-80
2022/04/30 04:37:53;;;;;;;2.30;1.55;;;;;;;9.36;47.53;100639.56;4749544;30;20189;-79
2022/04/30 04:40:20;;;;;;;3.97;1.70;;;;;;;9.56;47.37;100634.56;4785766;29;20048;-79
2022/04/30 04:42:47;;;;;;;3.33;1.98;;;;;;;9.70;46.70;100647.69;4786519;29;20413;-79
2022/04/30 04:45:13;;;;;;;2.45;1.88;;;;;;;9.57;45.56;100636.31;4761112;30;20035;-80
2022/04/30 04:47:41;;;;;;;2.03;1.80;;;;;;;9.65;46.00;100652.81;4765107;30;20085;-81
2022/04/30 04:50:10;;;;;;;2.05;1.85;;;;;;;9.79;45.41;100641.69;4740849;30;20039;-80
2022/04/30 04:52:43;;;;;;;3.05;2.05;;;;;;;10.00;44.92;100640.97;4758553;30;20760;-80
2022/04/30 04:55:09;;;;;;;3.67;1.85;;;;;;;10.35;44.68;100634.25;4756839;30;20059;-79
2022/04/30 04:57:35;;;;;;;2.47;2.10;;;;;;;10.72;44.68;100651.81;4786351;30;20056;-77
2022/04/30 05:00:07;;;;;;;1.70;1.60;;;;;;;11.12;43.95;100639.78;4798662;29;20064;-79
2022/04/30 05:02:33;;;;;;;1.60;1.50;;;;;;;11.48;42.80;100637.19;4786497;29;20501;-80
2022/04/30 05:05:03;;;;;;;2.60;1.55;;;;;;;11.77;42.12;100628.53;4755301;30;20056;-79
2022/04/30 05:07:30;;;;;;;2.22;1.52;;;;;;;11.86;42.24;100632.88;4769067;30;20040;-80
2022/04/30 05:09:56;;;;;;;1.90;1.70;;;;;;;12.31;41.60;100656.31;4771365;30;20047;-79
2022/04/30 05:12:28;;;;;;;1.85;1.73;;;;;;;12.25;40.20;100622.41;5080414;27;20405;-81
2022/04/30 05:14:54;;;;;;;2.10;1.90;;;;;;;12.15;39.33;100658.94;5059108;28;20051;-80
2022/04/30 05:17:21;;;;;;;1.90;1.70;;;;;;;12.16;40.48;100654.59;5077583;28;20321;-82
2022/04/30 05:19:47;;;;;;;1.90;1.70;;;;;;;12.70;39.81;100659.66;5078776;28;20503;-80
2022/04/30 05:22:15;;;;;;;3.70;1.60;;;;;;;13.34;39.78;100638.44;5078896;28;20033;-82
2022/04/30 05:24:42;;;;;;;3.30;1.50;;;;;;;14.46;38.61;100641.78;5078913;28;20131;-80
2022/04/30 05:27:13;;;;;;;1.60;1.50;;;;;;;15.76;36.47;100633.00;5078151;28;20155;-79
2022/04/30 05:29:39;;;;;;;;;;;;;;;16.96;35.48;100660.50;5048901;28;20048;-80
2022/04/30 05:32:05;;;;;;;3.05;1.70;;;;;;;18.95;33.94;100648.47;5064041;28;19916;-79
2022/04/30 05:34:32;;;;;;;1.48;1.38;;;;;;;19.84;31.23;100650.00;5037398;28;20098;-84
2022/04/30 05:36:59;;;;;;;1.60;1.50;;;;;;;19.46;29.74;100653.91;5066298;28;20510;-82
2022/04/30 05:39:26;;;;;;;2.28;1.52;;;;;;;20.57;30.06;100663.31;5047319;28;20048;-80
2022/04/30 05:41:55;;;;;;;1.90;1.70;;;;;;;21.57;28.52;100614.50;5081404;28;20040;-86
2022/04/30 05:44:26;;;;;;;4.55;2.45;;;;;;;20.51;27.27;100507.59;5066982;28;20131;-88
2022/04/30 05:47:01;;;;;;;3.95;3.33;;;;;;;20.72;27.57;100621.38;5059388;28;20074;-85
2022/04/30 05:49:27;;;;;;;4.10;2.10;;;;;;;20.49;27.39;100661.88;5048925;28;20040;-80
2022/04/30 05:51:53;;;;;;;12.55;8.95;;;;;;;21.52;26.91;100649.09;5084405;28;20058;-80
2022/04/30 05:54:20;;;;;;;27.33;18.17;;;;;;;23.24;25.43;100643.38;5083299;28;20044;-80
2022/04/30 05:56:45;;;;;;;4.10;3.55;;;;;;;23.87;23.80;100649.97;5062971;28;20062;-79
2022/04/30 05:59:11;;;;;;;5.20;3.92;;;;;;;23.58;23.77;100615.13;5070178;28;20040;-84
2022/04/30 06:01:37;;;;;;;2.40;2.00;;;;;;;23.54;22.60;100592.31;5081982;28;20467;-79
2022/04/30 06:04:04;;;;;;;1.63;1.38;;;;;;;21.79;23.56;100657.72;5059122;28;20048;-81
2022/04/30 06:06:33;;;;;;;5.10;3.58;;;;;;;20.10;24.38;100597.19;5039337;28;20032;-81
2022/04/30 06:09:02;;;;;;;5.68;4.57;;;;;;;21.56;23.94;100560.69;5079852;28;20071;-81
2022/04/30 06:11:28;;;;;;;1.95;1.65;;;;;;;22.32;22.71;100572.44;5063793;28;20518;-82
2022/04/30 06:13:54;;;;;;;2.58;2.13;;;;;;;21.67;23.12;100663.53;5067982;28;20044;-83
2022/04/30 06:16:20;;;;;;;2.55;1.95;;;;;;;23.14;21.78;100659.69;5078522;28;20063;-81
2022/04/30 06:18:51;;;;;;;7.07;2.63;;;;;;;25.33;20.61;100624.41;5080887;28;20108;-82
2022/04/30 06:21:22;;;;;;;6.68;4.90;;;;;;;27.40;18.80;100646.50;5056788;28;20447;-81
2022/04/30 06:23:48;;;;;;;9.17;6.73;;;;;;;28.91;17.90;100640.56;5041491;28;20036;-81
2022/04/30 06:26:14;;;;;;;3.78;1.35;;;;;;;29.74;16.48;100654.16;5038167;28;20454;-81
2022/04/30 06:28:41;;;;;;;5.85;4.22;;;;;;;30.64;15.95;100650.75;5080271;28;20060;-80
2022/04/30 06:31:13;;;;;;;8.48;6.47;;;;;;;32.12;14.83;100643.97;5047680;28;20079;-81
2022/04/30 06:33:42;;;;;;;13.10;5.40;;;;;;;31.36;14.86;100639.59;5067401;28;20617;-81
2022/04/30 06:36:14;;;;;;;16.02;12.75;;;;;;;29.16;15.38;100661.06;5070208;28;20040;-81
2022/04/30 06:38:40;;;;;;;8.20;7.00;;;;;;;27.52;15.72;100645.69;5065802;28;20044;-81
2022/04/30 06:41:14;;;;;;;9.40;6.97;;;;;;;26.99;16.11;100610.88;5059510;28;20120;-82
2022/04/30 06:43:41;;;;;;;9.68;6.97;;;;;;;27.70;16.04;100648.06;5057008;28;20036;-79
2022/04/30 06:46:07;;;;;;;5.97;4.97;;;;;;;28.89;15.17;100615.75;5072135;28;20147;-79
2022/04/30 06:48:36;;;;;;;14.18;11.55;;;;;;;28.97;15.31;100655.34;5056578;28;20573;-80
2022/04/30 06:51:06;;;;;;;5.45;4.40;;;;;;;30.10;14.07;100646.09;5075154;28;20032;-79
2022/04/30 06:59:31;;;;;;;7.45;4.85;;;;;;;31.56;13.76;100640.59;5056380;28;20118;-79
2022/04/30 07:02:01;;;;;;;9.45;6.82;;;;;;;31.92;12.21;100564.97;5019965;28;20397;-80
2022/04/30 07:04:30;;;;;;;2.92;1.95;;;;;;;31.93;12.46;100512.88;5055588;28;20040;-80
2022/04/30 07:06:57;;;;;;;7.82;4.88;;;;;;;33.02;11.32;100577.63;5048867;28;20186;-78
2022/04/30 07:09:47;;;;;;;6.85;4.75;;;;;;;33.33;11.17;100558.63;5063885;28;20047;-78
2022/04/30 07:12:31;;;;;;;9.00;7.70;;;;;;;32.40;11.09;100633.50;5036914;28;20061;-80
2022/04/30 07:14:58;;;;;;;4.82;1.95;;;;;;;29.98;11.61;100554.00;5044363;28;20045;-80
2022/04/30 07:17:24;;;;;;;6.25;5.60;;;;;;;28.14;12.31;100592.53;5062952;28;20704;-78
2022/04/30 07:19:50;;;;;;;9.73;7.28;;;;;;;27.78;13.28;100640.41;5060581;28;20118;-79
2022/04/30 07:22:16;;;;;;;4.13;1.80;;;;;;;27.17;12.46;100635.50;5032583;28;20549;-79
2022/04/30 07:24:43;;;;;;;8.32;6.13;;;;;;;26.05;12.94;100658.44;5043692;28;20495;-79
2022/04/30 07:27:10;;;;;;;6.53;4.45;;;;;;;24.19;13.80;100658.09;5032427;28;20440;-79
2022/04/30 07:29:39;;;;;;;6.93;5.78;;;;;;;22.86;14.47;100639.75;5048392;28;20458;-79
2022/04/30 07:32:07;;;;;;;7.35;5.10;;;;;;;21.79;15.12;100641.84;5046674;28;20345;-79
2022/04/30 07:34:40;;;;;;;4.50;2.92;;;;;;;20.27;15.67;100563.13;5026972;28;20044;-80
2022/04/30 07:37:10;;;;;;;5.05;2.92;;;;;;;19.92;16.11;100673.53;5034901;28;20130;-79
2022/04/30 07:39:38;;;;;;;6.10;3.42;;;;;;;19.22;16.60;100683.66;5049236;28;20044;-83
2022/04/30 07:42:04;;;;;;;7.55;3.22;;;;;;;18.59;17.23;100685.47;5046957;28;21001;-80
2022/04/30 07:44:31;;;;;;;5.68;4.55;;;;;;;17.74;17.80;100657.84;5067329;28;20428;-82
2022/04/30 07:46:57;;;;;;;3.45;1.40;;;;;;;17.86;18.35;100687.38;5033632;28;20156;-81
2022/04/30 07:49:24;;;;;;;3.70;2.58;;;;;;;19.66;18.41;100666.47;5050241;28;20040;-81
2022/04/30 07:51:55;;;;;;;5.55;2.15;;;;;;;21.70;17.44;100670.50;5064358;28;20102;-80
2022/04/30 07:54:24;;;;;;;2.63;1.88;;;;;;;24.80;15.86;100639.81;5027491;28;20515;-82
2022/04/30 07:56:57;;;;;;;3.00;1.50;;;;;;;26.71;14.16;100636.63;5061983;28;20064;-81
2022/04/30 07:59:23;;;;;;;2.38;1.95;;;;;;;28.13;13.21;100596.16;5034400;28;20656;-81
2022/04/30 08:01:50;;;;;;;5.93;1.95;;;;;;;29.45;12.24;100642.00;5063247;28;20082;-82
2022/04/30 08:04:17;;;;;;;4.45;2.25;;;;;;;30.04;11.27;100645.59;5067960;28;20573;-81
2022/04/30 08:06:44;;;;;;;2.70;1.75;;;;;;;28.22;11.86;100607.06;5064650;28;20196;-82
2022/04/30 08:09:10;;;;;;;4.43;3.00;;;;;;;27.14;12.01;100651.72;5050327;28;20044;-81
2022/04/30 08:11:36;;;;;;;2.65;1.92;;;;;;;25.50;12.96;100636.75;5084212;28;20044;-79
2022/04/30 08:14:05;;;;;;;3.42;1.95;;;;;;;23.86;13.24;100657.06;5047554;28;20100;-80
2022/04/30 08:16:30;;;;;;;35.65;25.90;;;;;;;22.45;13.95;100668.22;5069484;28;20644;-82
2022/04/30 08:19:00;;;;;;;26.67;18.80;;;;;;;21.28;14.92;100667.72;5034415;28;20081;-81
2022/04/30 08:21:26;;;;;;;4.05;2.30;;;;;;;21.43;14.58;100660.94;5047224;28;20036;-81
2022/04/30 08:23:55;;;;;;;5.63;1.50;;;;;;;20.92;15.39;100668.22;5065132;28;20483;-81
2022/04/30 08:26:22;;;;;;;9.35;6.90;;;;;;;20.55;15.44;100635.22;5046549;28;20483;-80
2022/04/30 08:28:50;;;;;;;19.15;12.93;;;;;;;21.56;15.59;100676.34;5054680;28;20145;-81
2022/04/30 08:31:24;;;;;;;14.63;8.98;;;;;;;24.40;14.76;100620.66;5069960;28;20056;-82
2022/04/30 08:33:53;;;;;;;21.50;14.95;;;;;;;27.02;13.11;100621.34;5045172;28;20048;-83
2022/04/30 08:36:22;;;;;;;2.03;1.20;;;;;;;27.09;12.79;100649.38;5064637;28;20524;-82
2022/04/30 08:38:51;;;;;;;21.23;17.02;;;;;;;25.89;13.21;100650.50;5048145;28;20044;-81
2022/04/30 08:41:18;;;;;;;5.88;2.28;;;;;;;26.54;13.02;100632.38;5050124;28;20090;-80
2022/04/30 08:43:48;;;;;;;7.15;5.93;;;;;;;28.93;12.67;100632.44;5066128;28;20097;-82
2022/04/30 08:46:20;;;;;;;5.00;1.20;;;;;;;30.70;11.00;100616.31;5049839;28;20040;-81
2022/04/30 08:48:50;;;;;;;5.75;3.47;;;;;;;29.98;10.63;100632.63;5045886;28;20040;-82
2022/04/30 08:51:18;;;;;;;6.20;4.93;;;;;;;27.86;11.33;100632.72;5055569;28;20037;-81
2022/04/30 08:53:44;;;;;;;16.08;10.60;;;;;;;25.54;12.02;100606.34;5066924;28;20059;-82
2022/04/30 08:56:11;;;;;;;16.15;12.00;;;;;;;23.63;13.14;100613.09;5066037;28;20044;-82
2022/04/30 08:58:37;;;;;;;17.50;13.85;;;;;;;22.59;13.76;100656.97;5050123;28;20040;-80
2022/04/30 09:01:05;;;;;;;7.32;5.43;;;;;;;21.46;14.19;100663.47;5054889;28;20067;-82
2022/04/30 09:03:35;;;;;;;6.68;4.15;;;;;;;20.60;14.81;100638.56;5085474;28;20067;-81
2022/04/30 09:06:04;;;;;;;2.95;1.50;;;;;;;20.06;15.08;100653.72;5068241;28;20036;-81
2022/04/30 09:08:34;;;;;;;7.28;5.63;;;;;;;19.54;15.63;100659.81;5067186;28;20051;-81
2022/04/30 09:11:08;;;;;;;2.35;1.40;;;;;;;18.98;15.85;100636.94;5068885;28;20036;-81
2022/04/30 09:13:49;;;;;;;4.97;2.83;;;;;;;18.92;16.02;100659.91;5069975;28;20045;-81
2022/04/30 09:16:22;;;;;;;10.50;7.07;;;;;;;18.86;16.27;100656.59;5065833;28;20036;-81
2022/04/30 09:18:50;;;;;;;6.05;4.20;;;;;;;19.47;16.38;100650.34;5064394;28;20048;-82
2022/04/30 09:21:17;;;;;;;4.15;2.53;;;;;;;20.07;15.70;100648.38;5043301;28;21014;-80
2022/04/30 09:23:45;;;;;;;4.68;3.20;;;;;;;20.51;15.94;100623.91;5045977;28;20048;-80
2022/04/30 09:26:12;;;;;;;4.15;2.28;;;;;;;22.25;15.21;100644.28;5061332;28;20307;-81
2022/04/30 09:28:42;;;;;;;2.28;1.58;;;;;;;23.34;14.56;100586.22;5033119;28;20044;-81
2022/04/30 09:31:11;;;;;;;4.13;2.45;;;;;;;25.60;13.35;100604.25;5043827;28;20035;-82
2022/04/30 09:33:43;;;;;;;5.10;1.75;;;;;;;27.41;12.65;100616.16;5042328;28;20040;-81
2022/04/30 09:38:54;;;;;;;5.13;2.30;;;;;;;30.28;11.19;100608.88;5067953;28;20144;-81
2022/04/30 09:41:26;;;;;;;3.30;2.00;;;;;;;31.69;10.42;100602.75;5049849;28;20492;-81
2022/04/30 09:44:07;;;;;;;3.22;2.25;;;;;;;31.95;10.06;100595.16;5045124;28;20146;-82
2022/04/30 09:46:38;;;;;;;1.98;1.55;;;;;;;32.56;9.76;100579.97;5068202;28;20051;-81
2022/04/30 09:54:38;;;;;;;2.13;1.52;;;;;;;28.50;10.21;100602.44;5052253;28;20040;-81
2022/04/30 09:57:07;;;;;;;10.07;9.07;;;;;;;26.99;11.32;100617.06;5036290;28;20123;-81
2022/04/30 09:59:42;;;;;;;5.70;4.05;;;;;;;25.60;11.49;100609.59;5068469;28;20044;-81
2022/04/30 10:02:09;;;;;;;4.93;2.38;;;;;;;24.40;11.72;100570.16;5048760;28;20085;-81
2022/04/30 10:04:37;;;;;;;5.53;3.53;;;;;;;23.74;12.54;100626.69;5053064;28;20047;-83
2022/04/30 10:07:18;;;;;;;5.47;3.30;;;;;;;22.52;13.08;100616.59;5035555;28;20520;-83
2022/04/30 10:10:01;;;;;;;4.20;3.33;;;;;;;21.29;13.21;100578.59;5048985;28;20398;-80
2022/04/30 10:12:37;;;;;;;9.20;2.80;;;;;;;20.54;13.77;100612.34;5067639;28;20389;-82
2022/04/30 10:15:09;;;;;;;2.03;1.50;;;;;;;19.66;14.30;100640.06;5073411;28;20411;-80
2022/04/30 10:17:38;;;;;;;6.43;3.42;;;;;;;19.24;14.81;100634.34;5053953;28;20056;-83
2022/04/30 10:20:17;;;;;;;5.28;2.97;;;;;;;18.09;15.38;100526.19;5056303;28;20048;-85
2022/04/30 10:22:54;;;;;;;17.92;9.65;;;;;;;18.32;15.46;100614.19;5017182;28;20037;-83
2022/04/30 10:25:33;;;;;;;11.63;7.43;;;;;;;18.74;15.78;100656.06;5049981;28;21184;-84
2022/04/30 10:28:04;;;;;;;25.52;15.05;;;;;;;19.07;15.26;100526.75;5049761;28;20445;-82
2022/04/30 10:30:30;;;;;;;28.52;16.98;;;;;;;19.81;15.23;100560.31;5064663;28;20134;-84
2022/04/30 10:33:07;;;;;;;13.18;7.95;;;;;;;19.82;15.22;100550.63;5034603;28;20052;-86
2022/04/30 10:35:38;;;;;;;8.60;4.75;;;;;;;19.88;15.03;100589.19;5043348;28;20049;-82
2022/04/30 10:38:24;;;;;;;5.50;2.55;;;;;;;19.41;15.21;100625.91;5064281;28;20127;-82
2022/04/30 10:40:58;;;;;;;5.00;2.63;;;;;;;18.15;15.81;100594.47;5044611;28;20059;-83
2022/04/30 10:43:37;;;;;;;3.35;2.00;;;;;;;17.81;16.18;100632.22;5017249;28;20036;-82
2022/04/30 10:46:27;;;;;;;1.95;1.30;;;;;;;17.35;16.45;100618.41;5046753;28;20048;-84
2022/04/30 10:48:55;;;;;;;9.05;4.95;;;;;;;17.04;16.92;100639.31;5054677;28;20539;-84
2022/04/30 10:51:41;;;;;;;5.07;3.22;;;;;;;16.47;17.39;100594.06;5076780;28;20098;-82
2022/04/30 10:54:13;;;;;;;3.65;2.80;;;;;;;16.46;17.58;100622.09;5059675;28;20067;-81
2022/04/30 10:56:42;;;;;;;20.60;13.88;;;;;;;16.39;17.88;100625.75;5041604;28;20112;-81
2022/04/30 10:59:20;;;;;;;15.70;10.25;;;;;;;16.12;18.31;100633.25;5081769;28;20040;-80
2022/04/30 11:01:52;;;;;;;19.10;13.43;;;;;;;15.99;18.38;100631.78;5056375;28;20035;-82
2022/04/30 11:04:19;;;;;;;8.73;5.28;;;;;;;15.50;18.63;100551.22;5036201;28;20052;-84
2022/04/30 11:06:51;;;;;;;2.55;1.90;;;;;;;15.51;18.46;100552.09;5054508;28;20037;-82
2022/04/30 11:09:24;;;;;;;4.97;2.10;;;;;;;15.94;18.50;100643.22;5040485;28;20040;-84
2022/04/30 11:11:56;;;;;;;5.35;3.25;;;;;;;15.93;18.37;100616.97;5023962;28;20053;-83
2022/04/30 11:14:23;;;;;;;10.50;7.05;;;;;;;15.91;18.60;100619.63;5051774;28;20071;-84
2022/04/30 11:16:49;;;;;;;6.07;3.03;;;;;;;15.87;19.02;100628.47;5058587;28;20045;-84
2022/04/30 11:19:21;;;;;;;6.38;3.88;;;;;;;15.71;18.84;100625.19;5047923;28;20047;-80
2022/04/30 11:21:55;;;;;;;6.03;3.28;;;;;;;15.33;19.12;100596.09;5018269;28;20467;-81
2022/04/30 11:24:32;;;;;;;3.05;2.15;;;;;;;15.33;19.19;100619.72;5058777;28;20058;-81
2022/04/30 11:26:59;;;;;;;6.18;2.17;;;;;;;15.11;19.34;100620.91;5054301;28;20045;-81
2022/04/30 11:29:26;;;;;;;2.70;1.40;;;;;;;14.63;19.42;100627.63;5082436;28;20104;-82
2022/04/30 11:31:54;;;;;;;4.15;1.65;;;;;;;14.25;19.75;100589.66;5066635;28;20063;-80
2022/04/30 11:34:24;;;;;;;6.72;2.15;;;;;;;14.15;19.96;100623.81;5065775;28;20067;-80
2022/04/30 11:36:56;;;;;;;10.02;5.95;;;;;;;13.99;20.18;100615.25;5047492;28;20044;-81
2022/04/30 11:39:26;;;;;;;17.08;10.82;;;;;;;13.83;20.51;100608.44;5047918;28;20041;-82
2022/04/30 11:41:57;;;;;;;27.33;14.65;;;;;;;13.86;20.72;100572.63;5035514;28;20032;-83
2022/04/30 11:44:27;;;;;;;20.38;12.20;;;;;;;14.25;20.71;100597.50;5076416;28;20556;-81
2022/04/30 11:46:54;;;;;;;12.50;6.53;;;;;;;14.60;20.93;100625.91;5066966;28;20044;-82
2022/04/30 11:49:25;;;;;;;6.07;2.88;;;;;;;14.56;20.59;100607.63;5024790;28;20079;-83
2022/04/30 11:51:54;;;;;;;10.77;6.85;;;;;;;13.95;20.82;100553.34;5069342;28;20040;-81
2022/04/30 11:54:32;;;;;;;9.85;5.32;;;;;;;14.39;20.87;100626.16;5047764;28;20049;-83
2022/04/30 11:57:07;;;;;;;2.75;1.98;;;;;;;14.37;20.80;100626.19;5048126;28;20446;-83
2022/04/30 11:59:41;;;;;;;4.30;2.53;;;;;;;14.06;20.72;100597.72;5049398;28;20147;-83
2022/04/30 12:02:21;;;;;;;18.27;10.75;;;;;;;13.66;20.84;100554.53;5038954;28;20055;-84
2022/04/30 12:04:54;;;;;;;8.52;5.05;;;;;;;14.01;21.50;100636.16;5068278;28;20071;-82
2022/04/30 12:07:47;;;;;;;17.73;8.10;;;;;;;13.95;21.50;100628.38;5049054;28;20032;-85
2022/04/30 12:10:28;;;;;;;3.17;1.50;;;;;;;13.06;21.57;100510.59;5054936;28;20074;-82